sensor_id;sensor_type;location;lat;lon;timestamp;P1;durP1;ratioP1;P2;durP2;ratioP2
17991;SDS011;9121;50.926;5.340;2022-07-30T00:00:12;7.53;;;4.25;;
17991;SDS011;9121;50.926;5.340;2022-07-30T00:02:41;10.15;;;4.30;;
17991;SDS011;9121;50.926;5.340;2022-07-30T00:05:08;9.02;;;4.07;;
17991;SDS011;9121;50.926;5.340;2022-07-30T00:07:36;7.85;;;4.63;;
17991;SDS011;9121;50.926;5.340;2022-07-30T00:10:03;11.77;;;4.35;;
17991;SDS011;9121;50.926;5.340;2022-07-30T00:12:30;10.30;;;4.93;;
17991;SDS011;9121;50.926;5.340;2022-07-30T00:14:57;27.35;;;4.80;;
17991;SDS011;9121;50.926;5.340;2022-07-30T00:17:24;14.75;;;4.93;;
17991;SDS011;9121;50.926;5.340;2022-07-30T00:19:52;10.15;;;4.63;;
17991;SDS011;9121;50.926;5.340;2022-07-30T00:22:19;11.10;;;4.68;;
17991;SDS011;9121;50.926;5.340;2022-07-30T00:24:46;13.18;;;4.40;;
17991;SDS011;9121;50.926;5.340;2022-07-30T00:27:13;12.07;;;4.63;;
17991;SDS011;9121;50.926;5.340;2022-07-30T00:29:40;10.60;;;4.53;;
17991;SDS011;9121;50.926;5.340;2022-07-30T00:32:07;11.13;;;4.30;;
17991;SDS011;9121;50.926;5.340;2022-07-30T00:34:34;12.45;;;4.82;;
17991;SDS011;9121;50.926;5.340;2022-07-30T00:37:02;10.95;;;4.68;;
17991;SDS011;9121;50.926;5.340;2022-07-30T00:39:29;18.92;;;5.00;;
17991;SDS011;9121;50.926;5.340;2022-07-30T00:41:56;14.75;;;4.97;;
17991;SDS011;9121;50.926;5.340;2022-07-30T00:44:24;11.38;;;4.50;;
17991;SDS011;9121;50.926;5.340;2022-07-30T00:46:52;10.38;;;5.03;;
17991;SDS011;9121;50.926;5.340;2022-07-30T00:49:20;8.02;;;4.40;;
17991;SDS011;9121;50.926;5.340;2022-07-30T00:51:48;13.52;;;4.97;;
17991;SDS011;9121;50.926;5.340;2022-07-30T00:54:17;10.90;;;4.85;;
17991;SDS011;9121;50.926;5.340;2022-07-30T00:56:45;12.05;;;5.43;;
17991;SDS011;9121;50.926;5.340;2022-07-30T00:59:12;14.70;;;5.90;;
17991;SDS011;9121;50.926;5.340;2022-07-30T01:01:40;11.63;;;5.38;;
17991;SDS011;9121;50.926;5.340;2022-07-30T01:04:06;9.40;;;5.07;;
17991;SDS011;9121;50.926;5.340;2022-07-30T01:06:35;10.75;;;5.68;;
17991;SDS011;9121;50.926;5.340;2022-07-30T01:09:03;11.38;;;5.65;;
17991;SDS011;9121;50.926;5.340;2022-07-30T01:11:33;15.48;;;5.40;;
17991;SDS011;9121;50.926;5.340;2022-07-30T01:14:03;12.63;;;6.15;;
17991;SDS011;9121;50.926;5.340;2022-07-30T01:16:30;13.55;;;6.05;;
17991;SDS011;9121;50.926;5.340;2022-07-30T01:18:58;12.00;;;6.03;;
17991;SDS011;9121;50.926;5.340;2022-07-30T01:21:45;12.85;;;5.63;;
17991;SDS011;9121;50.926;5.340;2022-07-30T01:24:19;15.10;;;7.20;;
17991;SDS011;9121;50.926;5.340;2022-07-30T01:26:55;16.10;;;6.80;;
17991;SDS011;9121;50.926;5.340;2022-07-30T01:29:23;14.05;;;6.75;;
17991;SDS011;9121;50.926;5.340;2022-07-30T01:31:52;9.68;;;6.20;;
17991;SDS011;9121;50.926;5.340;2022-07-30T01:34:23;17.33;;;6.55;;
17991;SDS011;9121;50.926;5.340;2022-07-30T01:36:53;16.30;;;7.28;;
17991;SDS011;9121;50.926;5.340;2022-07-30T01:39:22;16.80;;;6.80;;
17991;SDS011;9121;50.926;5.340;2022-07-30T01:41:52;18.23;;;7.13;;
17991;SDS011;9121;50.926;5.340;2022-07-30T01:44:23;11.80;;;7.25;;
17991;SDS011;9121;50.926;5.340;2022-07-30T01:46:52;15.85;;;7.28;;
17991;SDS011;9121;50.926;5.340;2022-07-30T01:49:21;13.57;;;7.47;;
17991;SDS011;9121;50.926;5.340;2022-07-30T01:51:49;14.82;;;7.50;;
17991;SDS011;9121;50.926;5.340;2022-07-30T01:54:17;13.63;;;7.90;;
17991;SDS011;9121;50.926;5.340;2022-07-30T01:56:46;17.60;;;7.93;;
17991;SDS011;9121;50.926;5.340;2022-07-30T01:59:17;16.65;;;7.75;;
17991;SDS011;9121;50.926;5.340;2022-07-30T02:01:47;16.88;;;7.85;;
17991;SDS011;9121;50.926;5.340;2022-07-30T02:04:14;16.75;;;7.65;;
17991;SDS011;9121;50.926;5.340;2022-07-30T02:06:42;15.75;;;8.02;;
17991;SDS011;9121;50.926;5.340;2022-07-30T02:09:12;15.85;;;8.85;;
17991;SDS011;9121;50.926;5.340;2022-07-30T02:11:44;20.20;;;8.27;;
17991;SDS011;9121;50.926;5.340;2022-07-30T02:14:33;15.57;;;8.23;;
17991;SDS011;9121;50.926;5.340;2022-07-30T02:17:07;14.82;;;8.65;;
17991;SDS011;9121;50.926;5.340;2022-07-30T02:19:40;19.92;;;8.68;;
17991;SDS011;9121;50.926;5.340;2022-07-30T02:22:10;17.70;;;8.85;;
17991;SDS011;9121;50.926;5.340;2022-07-30T02:24:40;20.40;;;9.60;;
17991;SDS011;9121;50.926;5.340;2022-07-30T02:27:09;22.60;;;9.55;;
17991;SDS011;9121;50.926;5.340;2022-07-30T02:29:40;17.33;;;9.45;;
17991;SDS011;9121;50.926;5.340;2022-07-30T02:32:11;22.27;;;10.07;;
17991;SDS011;9121;50.926;5.340;2022-07-30T02:34:42;17.88;;;10.10;;
17991;SDS011;9121;50.926;5.340;2022-07-30T02:37:11;22.70;;;10.85;;
17991;SDS011;9121;50.926;5.340;2022-07-30T02:39:40;19.70;;;10.40;;
17991;SDS011;9121;50.926;5.340;2022-07-30T02:42:08;20.15;;;11.18;;
17991;SDS011;9121;50.926;5.340;2022-07-30T02:44:38;18.45;;;11.40;;
17991;SDS011;9121;50.926;5.340;2022-07-30T02:47:08;24.45;;;12.07;;
17991;SDS011;9121;50.926;5.340;2022-07-30T02:49:40;20.70;;;11.52;;
17991;SDS011;9121;50.926;5.340;2022-07-30T02:52:08;27.23;;;11.95;;
17991;SDS011;9121;50.926;5.340;2022-07-30T02:54:38;20.40;;;11.80;;
17991;SDS011;9121;50.926;5.340;2022-07-30T02:57:07;24.75;;;12.23;;
17991;SDS011;9121;50.926;5.340;2022-07-30T02:59:34;20.92;;;13.10;;
17991;SDS011;9121;50.926;5.340;2022-07-30T03:02:03;19.00;;;11.88;;
17991;SDS011;9121;50.926;5.340;2022-07-30T03:04:33;21.00;;;13.18;;
17991;SDS011;9121;50.926;5.340;2022-07-30T03:07:01;20.80;;;13.20;;
17991;SDS011;9121;50.926;5.340;2022-07-30T03:09:29;26.70;;;14.20;;
17991;SDS011;9121;50.926;5.340;2022-07-30T03:11:56;24.17;;;13.73;;
17991;SDS011;9121;50.926;5.340;2022-07-30T03:14:25;27.02;;;14.35;;
17991;SDS011;9121;50.926;5.340;2022-07-30T03:16:54;28.75;;;14.85;;
17991;SDS011;9121;50.926;5.340;2022-07-30T03:19:22;29.88;;;14.98;;
17991;SDS011;9121;50.926;5.340;2022-07-30T03:21:53;26.08;;;15.52;;
17991;SDS011;9121;50.926;5.340;2022-07-30T03:24:22;36.92;;;16.58;;
17991;SDS011;9121;50.926;5.340;2022-07-30T03:26:50;26.58;;;15.90;;
17991;SDS011;9121;50.926;5.340;2022-07-30T03:29:19;28.45;;;17.42;;
17991;SDS011;9121;50.926;5.340;2022-07-30T03:31:49;32.15;;;16.10;;
17991;SDS011;9121;50.926;5.340;2022-07-30T03:34:18;26.40;;;15.50;;
17991;SDS011;9121;50.926;5.340;2022-07-30T03:36:46;26.27;;;16.45;;
17991;SDS011;9121;50.926;5.340;2022-07-30T03:39:14;27.63;;;17.30;;
17991;SDS011;9121;50.926;5.340;2022-07-30T03:41:43;29.77;;;17.75;;
17991;SDS011;9121;50.926;5.340;2022-07-30T03:44:11;32.00;;;17.27;;
17991;SDS011;9121;50.926;5.340;2022-07-30T03:46:39;28.98;;;17.83;;
17991;SDS011;9121;50.926;5.340;2022-07-30T03:49:07;29.15;;;17.30;;
17991;SDS011;9121;50.926;5.340;2022-07-30T03:51:35;31.90;;;18.70;;
17991;SDS011;9121;50.926;5.340;2022-07-30T03:54:03;31.33;;;17.67;;
17991;SDS011;9121;50.926;5.340;2022-07-30T03:56:35;29.80;;;17.63;;
17991;SDS011;9121;50.926;5.340;2022-07-30T03:59:02;31.23;;;17.10;;
17991;SDS011;9121;50.926;5.340;2022-07-30T04:01:30;35.80;;;18.73;;
17991;SDS011;9121;50.926;5.340;2022-07-30T04:04:02;28.55;;;17.60;;
17991;SDS011;9121;50.926;5.340;2022-07-30T04:06:30;29.90;;;16.50;;
17991;SDS011;9121;50.926;5.340;2022-07-30T04:09:00;31.67;;;17.70;;
17991;SDS011;9121;50.926;5.340;2022-07-30T04:11:27;29.98;;;16.35;;
17991;SDS011;9121;50.926;5.340;2022-07-30T04:13:55;32.60;;;17.50;;
17991;SDS011;9121;50.926;5.340;2022-07-30T04:16:23;29.45;;;17.95;;
17991;SDS011;9121;50.926;5.340;2022-07-30T04:19:00;33.53;;;18.17;;
17991;SDS011;9121;50.926;5.340;2022-07-30T04:21:30;36.05;;;17.17;;
17991;SDS011;9121;50.926;5.340;2022-07-30T04:23:58;29.80;;;17.70;;
17991;SDS011;9121;50.926;5.340;2022-07-30T04:26:27;30.65;;;16.70;;
17991;SDS011;9121;50.926;5.340;2022-07-30T04:28:58;28.42;;;17.77;;
17991;SDS011;9121;50.926;5.340;2022-07-30T04:31:26;29.58;;;17.95;;
17991;SDS011;9121;50.926;5.340;2022-07-30T04:33:54;38.45;;;19.30;;
17991;SDS011;9121;50.926;5.340;2022-07-30T04:36:21;30.08;;;18.90;;
17991;SDS011;9121;50.926;5.340;2022-07-30T04:38:49;35.40;;;19.63;;
17991;SDS011;9121;50.926;5.340;2022-07-30T04:41:16;31.15;;;19.63;;
17991;SDS011;9121;50.926;5.340;2022-07-30T04:43:43;32.80;;;18.92;;
17991;SDS011;9121;50.926;5.340;2022-07-30T04:46:11;36.70;;;20.02;;
17991;SDS011;9121;50.926;5.340;2022-07-30T04:48:39;33.60;;;19.75;;
17991;SDS011;9121;50.926;5.340;2022-07-30T04:51:08;36.72;;;21.30;;
17991;SDS011;9121;50.926;5.340;2022-07-30T04:53:37;35.80;;;20.67;;
17991;SDS011;9121;50.926;5.340;2022-07-30T04:56:06;36.60;;;22.13;;
17991;SDS011;9121;50.926;5.340;2022-07-30T04:58:34;39.22;;;21.52;;
17991;SDS011;9121;50.926;5.340;2022-07-30T05:01:05;45.55;;;22.38;;
17991;SDS011;9121;50.926;5.340;2022-07-30T05:03:35;36.95;;;20.75;;
17991;SDS011;9121;50.926;5.340;2022-07-30T05:06:04;35.13;;;21.55;;
17991;SDS011;9121;50.926;5.340;2022-07-30T05:08:32;34.50;;;22.45;;
17991;SDS011;9121;50.926;5.340;2022-07-30T05:10:59;34.28;;;20.90;;
17991;SDS011;9121;50.926;5.340;2022-07-30T05:13:27;41.90;;;21.58;;
17991;SDS011;9121;50.926;5.340;2022-07-30T05:15:54;35.30;;;22.10;;
17991;SDS011;9121;50.926;5.340;2022-07-30T05:18:21;37.03;;;22.15;;
17991;SDS011;9121;50.926;5.340;2022-07-30T05:20:49;39.63;;;22.20;;
17991;SDS011;9121;50.926;5.340;2022-07-30T05:23:16;31.48;;;21.70;;
17991;SDS011;9121;50.926;5.340;2022-07-30T05:25:43;39.13;;;22.13;;
17991;SDS011;9121;50.926;5.340;2022-07-30T05:28:10;41.08;;;22.48;;
17991;SDS011;9121;50.926;5.340;2022-07-30T05:30:37;41.90;;;22.83;;
17991;SDS011;9121;50.926;5.340;2022-07-30T05:33:04;37.95;;;20.98;;
17991;SDS011;9121;50.926;5.340;2022-07-30T05:35:31;44.13;;;22.95;;
17991;SDS011;9121;50.926;5.340;2022-07-30T05:37:59;41.72;;;22.88;;
17991;SDS011;9121;50.926;5.340;2022-07-30T05:40:26;42.78;;;23.02;;
17991;SDS011;9121;50.926;5.340;2022-07-30T05:42:53;37.00;;;22.58;;
17991;SDS011;9121;50.926;5.340;2022-07-30T05:45:20;39.55;;;22.33;;
17991;SDS011;9121;50.926;5.340;2022-07-30T05:47:47;42.15;;;24.63;;
17991;SDS011;9121;50.926;5.340;2022-07-30T05:50:14;44.38;;;23.90;;
17991;SDS011;9121;50.926;5.340;2022-07-30T05:52:40;37.70;;;22.38;;
17991;SDS011;9121;50.926;5.340;2022-07-30T05:55:09;39.90;;;23.05;;
17991;SDS011;9121;50.926;5.340;2022-07-30T05:57:36;36.80;;;23.02;;
17991;SDS011;9121;50.926;5.340;2022-07-30T06:00:06;42.58;;;23.00;;
17991;SDS011;9121;50.926;5.340;2022-07-30T06:02:34;37.03;;;22.77;;
17991;SDS011;9121;50.926;5.340;2022-07-30T06:05:01;40.70;;;23.63;;
17991;SDS011;9121;50.926;5.340;2022-07-30T06:07:28;37.95;;;23.88;;
17991;SDS011;9121;50.926;5.340;2022-07-30T06:09:55;41.25;;;24.00;;
17991;SDS011;9121;50.926;5.340;2022-07-30T06:12:25;37.97;;;23.20;;
17991;SDS011;9121;50.926;5.340;2022-07-30T06:14:53;33.88;;;22.90;;
17991;SDS011;9121;50.926;5.340;2022-07-30T06:17:20;41.40;;;22.90;;
17991;SDS011;9121;50.926;5.340;2022-07-30T06:19:46;39.53;;;24.65;;
17991;SDS011;9121;50.926;5.340;2022-07-30T06:22:14;42.33;;;23.92;;
17991;SDS011;9121;50.926;5.340;2022-07-30T06:24:41;45.45;;;25.05;;
17991;SDS011;9121;50.926;5.340;2022-07-30T06:27:08;37.75;;;23.55;;
17991;SDS011;9121;50.926;5.340;2022-07-30T06:29:37;39.10;;;24.55;;
17991;SDS011;9121;50.926;5.340;2022-07-30T06:32:04;39.20;;;23.60;;
17991;SDS011;9121;50.926;5.340;2022-07-30T06:34:32;41.45;;;25.15;;
17991;SDS011;9121;50.926;5.340;2022-07-30T06:36:59;44.05;;;23.65;;
17991;SDS011;9121;50.926;5.340;2022-07-30T06:39:26;40.20;;;23.13;;
17991;SDS011;9121;50.926;5.340;2022-07-30T06:41:53;34.03;;;22.70;;
17991;SDS011;9121;50.926;5.340;2022-07-30T06:44:20;37.47;;;21.90;;
17991;SDS011;9121;50.926;5.340;2022-07-30T06:46:48;37.00;;;21.27;;
17991;SDS011;9121;50.926;5.340;2022-07-30T06:49:17;33.85;;;19.42;;
17991;SDS011;9121;50.926;5.340;2022-07-30T06:51:44;36.35;;;20.58;;
17991;SDS011;9121;50.926;5.340;2022-07-30T06:54:11;33.50;;;20.35;;
17991;SDS011;9121;50.926;5.340;2022-07-30T06:56:38;33.83;;;19.70;;
17991;SDS011;9121;50.926;5.340;2022-07-30T06:59:05;38.92;;;19.92;;
17991;SDS011;9121;50.926;5.340;2022-07-30T07:01:31;31.65;;;18.08;;
17991;SDS011;9121;50.926;5.340;2022-07-30T07:04:00;35.03;;;17.60;;
17991;SDS011;9121;50.926;5.340;2022-07-30T07:06:27;37.70;;;19.40;;
17991;SDS011;9121;50.926;5.340;2022-07-30T07:08:54;30.10;;;18.05;;
17991;SDS011;9121;50.926;5.340;2022-07-30T07:11:21;30.42;;;17.05;;
17991;SDS011;9121;50.926;5.340;2022-07-30T07:13:48;33.20;;;17.88;;
17991;SDS011;9121;50.926;5.340;2022-07-30T07:16:15;28.00;;;16.65;;
17991;SDS011;9121;50.926;5.340;2022-07-30T07:18:45;25.35;;;14.15;;
17991;SDS011;9121;50.926;5.340;2022-07-30T07:21:14;24.02;;;13.82;;
17991;SDS011;9121;50.926;5.340;2022-07-30T07:23:41;21.50;;;12.00;;
17991;SDS011;9121;50.926;5.340;2022-07-30T07:26:08;20.63;;;11.20;;
17991;SDS011;9121;50.926;5.340;2022-07-30T07:28:36;31.85;;;12.02;;
17991;SDS011;9121;50.926;5.340;2022-07-30T07:31:04;21.70;;;12.43;;
17991;SDS011;9121;50.926;5.340;2022-07-30T07:33:31;19.70;;;10.85;;
17991;SDS011;9121;50.926;5.340;2022-07-30T07:35:58;32.75;;;12.35;;
17991;SDS011;9121;50.926;5.340;2022-07-30T07:38:26;22.30;;;9.98;;
17991;SDS011;9121;50.926;5.340;2022-07-30T07:40:53;15.07;;;7.40;;
17991;SDS011;9121;50.926;5.340;2022-07-30T07:43:20;13.50;;;6.22;;
17991;SDS011;9121;50.926;5.340;2022-07-30T07:45:49;11.73;;;5.80;;
17991;SDS011;9121;50.926;5.340;2022-07-30T07:48:16;12.40;;;6.20;;
17991;SDS011;9121;50.926;5.340;2022-07-30T07:50:43;19.92;;;6.75;;
17991;SDS011;9121;50.926;5.340;2022-07-30T07:53:10;17.65;;;7.43;;
17991;SDS011;9121;50.926;5.340;2022-07-30T07:55:39;14.15;;;7.18;;
17991;SDS011;9121;50.926;5.340;2022-07-30T07:58:06;16.10;;;8.80;;
17991;SDS011;9121;50.926;5.340;2022-07-30T08:00:35;17.40;;;7.15;;
17991;SDS011;9121;50.926;5.340;2022-07-30T08:03:02;16.23;;;7.03;;
17991;SDS011;9121;50.926;5.340;2022-07-30T08:05:29;15.50;;;7.43;;
17991;SDS011;9121;50.926;5.340;2022-07-30T08:07:56;18.23;;;7.05;;
17991;SDS011;9121;50.926;5.340;2022-07-30T08:10:24;13.95;;;7.10;;
17991;SDS011;9121;50.926;5.340;2022-07-30T08:12:52;11.82;;;6.45;;
17991;SDS011;9121;50.926;5.340;2022-07-30T08:15:19;15.98;;;6.80;;
17991;SDS011;9121;50.926;5.340;2022-07-30T08:17:46;14.30;;;6.22;;
17991;SDS011;9121;50.926;5.340;2022-07-30T08:20:14;8.73;;;4.20;;
17991;SDS011;9121;50.926;5.340;2022-07-30T08:22:41;8.45;;;4.22;;
17991;SDS011;9121;50.926;5.340;2022-07-30T08:25:08;11.77;;;3.85;;
17991;SDS011;9121;50.926;5.340;2022-07-30T08:27:35;13.18;;;4.93;;
17991;SDS011;9121;50.926;5.340;2022-07-30T08:30:05;21.67;;;5.63;;
17991;SDS011;9121;50.926;5.340;2022-07-30T08:32:33;14.80;;;4.90;;
17991;SDS011;9121;50.926;5.340;2022-07-30T08:35:01;17.10;;;4.88;;
17991;SDS011;9121;50.926;5.340;2022-07-30T08:37:28;8.75;;;3.78;;
17991;SDS011;9121;50.926;5.340;2022-07-30T08:39:55;14.38;;;5.28;;
17991;SDS011;9121;50.926;5.340;2022-07-30T08:42:22;14.48;;;5.15;;
17991;SDS011;9121;50.926;5.340;2022-07-30T08:44:50;12.10;;;4.97;;
17991;SDS011;9121;50.926;5.340;2022-07-30T08:47:22;9.55;;;4.35;;
17991;SDS011;9121;50.926;5.340;2022-07-30T08:49:56;9.23;;;4.90;;
17991;SDS011;9121;50.926;5.340;2022-07-30T08:52:28;14.02;;;4.43;;
17991;SDS011;9121;50.926;5.340;2022-07-30T08:54:56;9.75;;;4.50;;
17991;SDS011;9121;50.926;5.340;2022-07-30T08:57:24;6.70;;;4.05;;
17991;SDS011;9121;50.926;5.340;2022-07-30T08:59:52;8.07;;;4.47;;
17991;SDS011;9121;50.926;5.340;2022-07-30T09:02:20;13.80;;;4.78;;
17991;SDS011;9121;50.926;5.340;2022-07-30T09:04:47;10.50;;;4.43;;
17991;SDS011;9121;50.926;5.340;2022-07-30T09:07:14;8.43;;;3.80;;
17991;SDS011;9121;50.926;5.340;2022-07-30T09:09:41;9.35;;;3.78;;
17991;SDS011;9121;50.926;5.340;2022-07-30T09:15:00;9.45;;;4.10;;
17991;SDS011;9121;50.926;5.340;2022-07-30T09:17:43;9.57;;;4.57;;
17991;SDS011;9121;50.926;5.340;2022-07-30T09:20:15;13.00;;;4.55;;
17991;SDS011;9121;50.926;5.340;2022-07-30T09:22:44;10.15;;;4.35;;
17991;SDS011;9121;50.926;5.340;2022-07-30T09:25:13;7.80;;;3.63;;
17991;SDS011;9121;50.926;5.340;2022-07-30T09:27:44;9.48;;;4.00;;
17991;SDS011;9121;50.926;5.340;2022-07-30T09:30:12;8.93;;;3.30;;
17991;SDS011;9121;50.926;5.340;2022-07-30T09:32:47;7.40;;;3.33;;
17991;SDS011;9121;50.926;5.340;2022-07-30T09:35:15;9.50;;;3.42;;
17991;SDS011;9121;50.926;5.340;2022-07-30T09:37:43;7.75;;;3.72;;
17991;SDS011;9121;50.926;5.340;2022-07-30T09:40:11;10.10;;;3.83;;
17991;SDS011;9121;50.926;5.340;2022-07-30T09:42:39;10.80;;;3.20;;
17991;SDS011;9121;50.926;5.340;2022-07-30T09:45:07;10.25;;;3.13;;
17991;SDS011;9121;50.926;5.340;2022-07-30T09:47:36;10.32;;;3.67;;
17991;SDS011;9121;50.926;5.340;2022-07-30T09:50:06;6.78;;;3.03;;
17991;SDS011;9121;50.926;5.340;2022-07-30T09:52:35;12.45;;;3.97;;
17991;SDS011;9121;50.926;5.340;2022-07-30T09:55:03;5.68;;;3.30;;
17991;SDS011;9121;50.926;5.340;2022-07-30T09:57:31;8.70;;;3.20;;
17991;SDS011;9121;50.926;5.340;2022-07-30T10:00:14;10.38;;;3.92;;
17991;SDS011;9121;50.926;5.340;2022-07-30T10:02:43;7.80;;;3.42;;
17991;SDS011;9121;50.926;5.340;2022-07-30T10:05:14;10.73;;;3.80;;
17991;SDS011;9121;50.926;5.340;2022-07-30T10:07:46;5.90;;;3.40;;
17991;SDS011;9121;50.926;5.340;2022-07-30T10:10:19;7.25;;;2.70;;
17991;SDS011;9121;50.926;5.340;2022-07-30T10:12:49;5.82;;;3.15;;
17991;SDS011;9121;50.926;5.340;2022-07-30T10:15:18;4.60;;;2.90;;
17991;SDS011;9121;50.926;5.340;2022-07-30T10:17:46;12.40;;;3.33;;
17991;SDS011;9121;50.926;5.340;2022-07-30T10:20:15;4.50;;;2.40;;
17991;SDS011;9121;50.926;5.340;2022-07-30T10:22:42;5.03;;;2.95;;
17991;SDS011;9121;50.926;5.340;2022-07-30T10:25:09;9.20;;;3.00;;
17991;SDS011;9121;50.926;5.340;2022-07-30T10:27:36;8.43;;;2.97;;
17991;SDS011;9121;50.926;5.340;2022-07-30T10:30:08;11.27;;;2.42;;
17991;SDS011;9121;50.926;5.340;2022-07-30T10:32:37;7.90;;;2.55;;
17991;SDS011;9121;50.926;5.340;2022-07-30T10:35:05;6.20;;;2.78;;
17991;SDS011;9121;50.926;5.340;2022-07-30T10:37:35;8.07;;;2.72;;
17991;SDS011;9121;50.926;5.340;2022-07-30T10:40:06;6.95;;;2.92;;
17991;SDS011;9121;50.926;5.340;2022-07-30T10:42:49;11.75;;;2.58;;
17991;SDS011;9121;50.926;5.340;2022-07-30T10:45:43;4.05;;;1.95;;
17991;SDS011;9121;50.926;5.340;2022-07-30T10:48:14;9.10;;;2.50;;
17991;SDS011;9121;50.926;5.340;2022-07-30T10:50:50;7.90;;;2.58;;
17991;SDS011;9121;50.926;5.340;2022-07-30T10:53:32;8.32;;;3.05;;
17991;SDS011;9121;50.926;5.340;2022-07-30T10:56:10;5.82;;;2.50;;
17991;SDS011;9121;50.926;5.340;2022-07-30T11:01:28;8.90;;;2.25;;
17991;SDS011;9121;50.926;5.340;2022-07-30T11:04:32;9.35;;;2.47;;
17991;SDS011;9121;50.926;5.340;2022-07-30T11:09:58;11.88;;;2.50;;
17991;SDS011;9121;50.926;5.340;2022-07-30T11:15:50;4.75;;;1.83;;
17991;SDS011;9121;50.926;5.340;2022-07-30T11:18:26;10.00;;;2.45;;
17991;SDS011;9121;50.926;5.340;2022-07-30T11:21:12;5.85;;;2.13;;
17991;SDS011;9121;50.926;5.340;2022-07-30T11:23:40;6.88;;;2.20;;
17991;SDS011;9121;50.926;5.340;2022-07-30T11:26:10;4.05;;;2.30;;
17991;SDS011;9121;50.926;5.340;2022-07-30T11:28:57;4.22;;;2.38;;
17991;SDS011;9121;50.926;5.340;2022-07-30T11:31:27;7.35;;;2.42;;
17991;SDS011;9121;50.926;5.340;2022-07-30T11:37:01;6.45;;;2.40;;
17991;SDS011;9121;50.926;5.340;2022-07-30T11:42:35;6.82;;;1.98;;
17991;SDS011;9121;50.926;5.340;2022-07-30T11:45:18;4.38;;;2.25;;
17991;SDS011;9121;50.926;5.340;2022-07-30T11:47:49;5.40;;;2.17;;
17991;SDS011;9121;50.926;5.340;2022-07-30T11:50:17;6.55;;;1.85;;
17991;SDS011;9121;50.926;5.340;2022-07-30T11:52:47;17.30;;;2.92;;
17991;SDS011;9121;50.926;5.340;2022-07-30T11:55:20;6.13;;;2.22;;
17991;SDS011;9121;50.926;5.340;2022-07-30T11:57:48;7.03;;;2.42;;
17991;SDS011;9121;50.926;5.340;2022-07-30T12:00:15;5.88;;;2.30;;
17991;SDS011;9121;50.926;5.340;2022-07-30T12:02:43;8.90;;;2.38;;
17991;SDS011;9121;50.926;5.340;2022-07-30T12:05:12;9.13;;;2.20;;
17991;SDS011;9121;50.926;5.340;2022-07-30T12:07:39;8.60;;;1.98;;
17991;SDS011;9121;50.926;5.340;2022-07-30T12:10:12;4.13;;;2.00;;
17991;SDS011;9121;50.926;5.340;2022-07-30T12:12:40;7.55;;;2.28;;
17991;SDS011;9121;50.926;5.340;2022-07-30T12:15:07;13.57;;;2.22;;
17991;SDS011;9121;50.926;5.340;2022-07-30T12:17:42;2.53;;;1.83;;
17991;SDS011;9121;50.926;5.340;2022-07-30T12:20:15;6.32;;;1.85;;
17991;SDS011;9121;50.926;5.340;2022-07-30T12:22:43;8.60;;;2.22;;
17991;SDS011;9121;50.926;5.340;2022-07-30T12:25:11;10.73;;;2.20;;
17991;SDS011;9121;50.926;5.340;2022-07-30T12:27:38;3.08;;;1.80;;
17991;SDS011;9121;50.926;5.340;2022-07-30T12:30:06;6.78;;;1.98;;
17991;SDS011;9121;50.926;5.340;2022-07-30T12:32:34;2.70;;;1.70;;
17991;SDS011;9121;50.926;5.340;2022-07-30T12:35:01;8.27;;;1.98;;
17991;SDS011;9121;50.926;5.340;2022-07-30T12:37:30;5.35;;;2.28;;
17991;SDS011;9121;50.926;5.340;2022-07-30T12:40:04;3.35;;;1.77;;
17991;SDS011;9121;50.926;5.340;2022-07-30T12:42:33;5.53;;;2.45;;
17991;SDS011;9121;50.926;5.340;2022-07-30T12:45:00;6.35;;;2.28;;
17991;SDS011;9121;50.926;5.340;2022-07-30T12:47:27;4.57;;;2.70;;
17991;SDS011;9121;50.926;5.340;2022-07-30T12:49:56;6.35;;;2.30;;
17991;SDS011;9121;50.926;5.340;2022-07-30T12:52:25;12.27;;;2.70;;
17991;SDS011;9121;50.926;5.340;2022-07-30T12:54:58;7.38;;;4.53;;
17991;SDS011;9121;50.926;5.340;2022-07-30T12:57:26;3.17;;;2.20;;
17991;SDS011;9121;50.926;5.340;2022-07-30T13:00:04;8.50;;;3.53;;
17991;SDS011;9121;50.926;5.340;2022-07-30T13:02:33;10.82;;;2.80;;
17991;SDS011;9121;50.926;5.340;2022-07-30T13:05:00;3.83;;;1.95;;
17991;SDS011;9121;50.926;5.340;2022-07-30T13:07:27;7.22;;;2.15;;
17991;SDS011;9121;50.926;5.340;2022-07-30T13:10:07;7.00;;;2.35;;
17991;SDS011;9121;50.926;5.340;2022-07-30T13:12:35;5.22;;;2.17;;
17991;SDS011;9121;50.926;5.340;2022-07-30T13:15:02;3.60;;;2.00;;
17991;SDS011;9121;50.926;5.340;2022-07-30T13:17:29;6.15;;;2.20;;
17991;SDS011;9121;50.926;5.340;2022-07-30T13:19:56;7.45;;;1.98;;
17991;SDS011;9121;50.926;5.340;2022-07-30T13:22:24;7.07;;;2.17;;
17991;SDS011;9121;50.926;5.340;2022-07-30T13:24:51;7.72;;;1.63;;
17991;SDS011;9121;50.926;5.340;2022-07-30T13:27:20;5.35;;;2.05;;
17991;SDS011;9121;50.926;5.340;2022-07-30T13:29:47;5.45;;;2.10;;
17991;SDS011;9121;50.926;5.340;2022-07-30T13:32:13;5.25;;;1.67;;
17991;SDS011;9121;50.926;5.340;2022-07-30T13:34:40;6.82;;;1.90;;
17991;SDS011;9121;50.926;5.340;2022-07-30T13:37:08;8.32;;;1.95;;
17991;SDS011;9121;50.926;5.340;2022-07-30T13:39:35;3.78;;;1.73;;
17991;SDS011;9121;50.926;5.340;2022-07-30T13:42:01;5.10;;;1.75;;
17991;SDS011;9121;50.926;5.340;2022-07-30T13:44:30;5.10;;;1.83;;
17991;SDS011;9121;50.926;5.340;2022-07-30T13:46:57;6.35;;;2.30;;
17991;SDS011;9121;50.926;5.340;2022-07-30T13:49:24;4.47;;;1.77;;
17991;SDS011;9121;50.926;5.340;2022-07-30T13:51:51;9.18;;;2.38;;
17991;SDS011;9121;50.926;5.340;2022-07-30T13:54:18;4.32;;;1.90;;
17991;SDS011;9121;50.926;5.340;2022-07-30T13:56:45;5.05;;;2.20;;
17991;SDS011;9121;50.926;5.340;2022-07-30T13:59:12;5.97;;;2.22;;
17991;SDS011;9121;50.926;5.340;2022-07-30T14:01:40;7.68;;;2.47;;
17991;SDS011;9121;50.926;5.340;2022-07-30T14:04:07;4.75;;;2.35;;
17991;SDS011;9121;50.926;5.340;2022-07-30T14:06:34;4.03;;;2.08;;
17991;SDS011;9121;50.926;5.340;2022-07-30T14:09:01;3.85;;;1.90;;
17991;SDS011;9121;50.926;5.340;2022-07-30T14:11:29;4.28;;;1.90;;
17991;SDS011;9121;50.926;5.340;2022-07-30T14:13:56;2.42;;;1.80;;
17991;SDS011;9121;50.926;5.340;2022-07-30T14:16:23;5.32;;;1.80;;
17991;SDS011;9121;50.926;5.340;2022-07-30T14:18:51;5.78;;;1.88;;
17991;SDS011;9121;50.926;5.340;2022-07-30T14:21:19;6.90;;;1.45;;
17991;SDS011;9121;50.926;5.340;2022-07-30T14:23:46;3.63;;;1.65;;
17991;SDS011;9121;50.926;5.340;2022-07-30T14:26:13;8.60;;;2.17;;
17991;SDS011;9121;50.926;5.340;2022-07-30T14:28:40;7.00;;;2.20;;
17991;SDS011;9121;50.926;5.340;2022-07-30T14:31:07;3.95;;;1.90;;
17991;SDS011;9121;50.926;5.340;2022-07-30T14:33:34;4.45;;;1.65;;
17991;SDS011;9121;50.926;5.340;2022-07-30T14:36:02;4.07;;;1.60;;
17991;SDS011;9121;50.926;5.340;2022-07-30T14:38:29;4.15;;;1.95;;
17991;SDS011;9121;50.926;5.340;2022-07-30T14:40:56;5.28;;;1.70;;
17991;SDS011;9121;50.926;5.340;2022-07-30T14:43:23;6.45;;;2.00;;
17991;SDS011;9121;50.926;5.340;2022-07-30T14:45:51;9.52;;;1.65;;
17991;SDS011;9121;50.926;5.340;2022-07-30T14:48:18;5.38;;;2.00;;
17991;SDS011;9121;50.926;5.340;2022-07-30T14:50:45;6.05;;;2.08;;
17991;SDS011;9121;50.926;5.340;2022-07-30T14:53:14;8.52;;;1.98;;
17991;SDS011;9121;50.926;5.340;2022-07-30T14:55:41;6.10;;;1.85;;
17991;SDS011;9121;50.926;5.340;2022-07-30T14:58:07;7.65;;;2.03;;
17991;SDS011;9121;50.926;5.340;2022-07-30T15:00:34;4.68;;;2.20;;
17991;SDS011;9121;50.926;5.340;2022-07-30T15:03:01;7.50;;;2.25;;
17991;SDS011;9121;50.926;5.340;2022-07-30T15:05:28;5.03;;;2.20;;
17991;SDS011;9121;50.926;5.340;2022-07-30T15:07:55;6.50;;;1.88;;
17991;SDS011;9121;50.926;5.340;2022-07-30T15:10:23;5.25;;;2.50;;
17991;SDS011;9121;50.926;5.340;2022-07-30T15:12:50;6.80;;;2.30;;
17991;SDS011;9121;50.926;5.340;2022-07-30T15:15:17;3.17;;;1.73;;